Disclaimer

Please do not use the information listed here in-flight or in-navigation, as they are not provided to us by the airports but are provided by volunteers, so they might be outdated.

Search


Regions


Airport information page

Radio informations:
DAISETSU TWR - 118.55 MHz

Airport informations:
Latitude: 43° 40' 15.00" N
Longitude: 142° 26' 51.00" E
Elevation: 721 feet - 220 meters
Operating hours: Remarks
Operating agency: Civil government, landing fees and diplomatic clearance may be required
Timezone: UTC+9
Fuel: Jet A1, without icing nhibitor.

100/130 MIL Spec, low lead, aviation gasoline (BLUE)

Runway information:
16/34 - 8200 x 200 feet< - >2499 x 61 meters

Recent METARs:
RJEC 151100Z 14004KT 9999 FEW010 BKN040 02/01 Q1021
RJEC 151100Z 14004KT 9999 FEW010 BKN040 02/01 Q1021
RJEC 151100Z 14004KT 9999 FEW010 BKN040 02/01 Q1021

Airport on the map: